sensor_id;sensor_type;location;lat;lon;timestamp;temperature;humidity
33803;DHT22;20110;53.120;5.786;2023-07-31T00:00:34;15.10;99.90
33803;DHT22;20110;53.120;5.786;2023-07-31T00:03:00;15.10;99.90
33803;DHT22;20110;53.120;5.786;2023-07-31T00:05:26;15.10;99.90
33803;DHT22;20110;53.120;5.786;2023-07-31T00:07:52;15.00;99.90
33803;DHT22;20110;53.120;5.786;2023-07-31T00:10:19;15.00;99.90
33803;DHT22;20110;53.120;5.786;2023-07-31T00:12:45;15.00;99.90
33803;DHT22;20110;53.120;5.786;2023-07-31T00:15:13;15.00;99.90
33803;DHT22;20110;53.120;5.786;2023-07-31T00:17:39;15.00;99.90
33803;DHT22;20110;53.120;5.786;2023-07-31T00:20:06;15.00;99.90
33803;DHT22;20110;53.120;5.786;2023-07-31T00:22:32;15.00;99.90
33803;DHT22;20110;53.120;5.786;2023-07-31T00:24:58;15.00;99.90
33803;DHT22;20110;53.120;5.786;2023-07-31T00:27:25;15.00;99.90
33803;DHT22;20110;53.120;5.786;2023-07-31T00:29:51;15.00;99.90
33803;DHT22;20110;53.120;5.786;2023-07-31T00:32:18;15.00;99.90
33803;DHT22;20110;53.120;5.786;2023-07-31T00:34:44;15.00;99.90
33803;DHT22;20110;53.120;5.786;2023-07-31T00:37:10;15.00;99.90
33803;DHT22;20110;53.120;5.786;2023-07-31T00:39:36;15.00;99.90
33803;DHT22;20110;53.120;5.786;2023-07-31T00:42:02;15.00;99.90
33803;DHT22;20110;53.120;5.786;2023-07-31T00:44:28;14.90;99.90
33803;DHT22;20110;53.120;5.786;2023-07-31T00:46:54;14.90;99.90
33803;DHT22;20110;53.120;5.786;2023-07-31T00:49:22;14.90;99.90
33803;DHT22;20110;53.120;5.786;2023-07-31T00:51:48;14.90;99.90
33803;DHT22;20110;53.120;5.786;2023-07-31T00:54:14;14.90;99.90
33803;DHT22;20110;53.120;5.786;2023-07-31T00:56:41;14.80;99.90
33803;DHT22;20110;53.120;5.786;2023-07-31T00:59:09;14.80;99.90
33803;DHT22;20110;53.120;5.786;2023-07-31T01:01:35;14.80;99.90
33803;DHT22;20110;53.120;5.786;2023-07-31T01:04:01;14.70;99.90
33803;DHT22;20110;53.120;5.786;2023-07-31T01:06:37;14.70;99.90
33803;DHT22;20110;53.120;5.786;2023-07-31T01:09:35;14.70;99.90
33803;DHT22;20110;53.120;5.786;2023-07-31T01:12:07;14.60;99.90
33803;DHT22;20110;53.120;5.786;2023-07-31T01:14:38;14.60;99.90
33803;DHT22;20110;53.120;5.786;2023-07-31T01:17:04;14.60;99.90
33803;DHT22;20110;53.120;5.786;2023-07-31T01:19:30;14.60;99.90
33803;DHT22;20110;53.120;5.786;2023-07-31T01:27:38;14.60;99.90
33803;DHT22;20110;53.120;5.786;2023-07-31T01:30:16;14.60;99.90
33803;DHT22;20110;53.120;5.786;2023-07-31T01:32:49;14.50;99.90
33803;DHT22;20110;53.120;5.786;2023-07-31T01:35:18;14.50;99.90
33803;DHT22;20110;53.120;5.786;2023-07-31T01:37:45;14.50;99.90
33803;DHT22;20110;53.120;5.786;2023-07-31T01:40:11;14.50;99.90
33803;DHT22;20110;53.120;5.786;2023-07-31T01:42:37;14.50;99.90
33803;DHT22;20110;53.120;5.786;2023-07-31T01:45:03;14.40;99.90
33803;DHT22;20110;53.120;5.786;2023-07-31T01:47:29;14.40;99.90
33803;DHT22;20110;53.120;5.786;2023-07-31T01:49:56;14.40;99.90
33803;DHT22;20110;53.120;5.786;2023-07-31T01:52:22;14.30;99.90
33803;DHT22;20110;53.120;5.786;2023-07-31T01:54:48;14.40;99.90
33803;DHT22;20110;53.120;5.786;2023-07-31T01:57:14;14.40;99.90
33803;DHT22;20110;53.120;5.786;2023-07-31T01:59:40;14.40;99.90
33803;DHT22;20110;53.120;5.786;2023-07-31T02:02:06;14.30;99.90
33803;DHT22;20110;53.120;5.786;2023-07-31T02:04:31;14.40;99.90
33803;DHT22;20110;53.120;5.786;2023-07-31T02:06:57;14.40;99.90
33803;DHT22;20110;53.120;5.786;2023-07-31T02:09:23;14.40;99.90
33803;DHT22;20110;53.120;5.786;2023-07-31T02:11:49;14.40;99.90
33803;DHT22;20110;53.120;5.786;2023-07-31T02:14:14;14.40;99.90
33803;DHT22;20110;53.120;5.786;2023-07-31T02:16:40;14.40;99.90
33803;DHT22;20110;53.120;5.786;2023-07-31T02:19:08;14.40;99.90
33803;DHT22;20110;53.120;5.786;2023-07-31T02:21:33;14.40;99.90
33803;DHT22;20110;53.120;5.786;2023-07-31T02:23:59;14.30;99.90
33803;DHT22;20110;53.120;5.786;2023-07-31T02:26:25;14.30;99.90
33803;DHT22;20110;53.120;5.786;2023-07-31T02:28:52;14.40;99.90
33803;DHT22;20110;53.120;5.786;2023-07-31T02:31:18;14.30;99.90
33803;DHT22;20110;53.120;5.786;2023-07-31T02:33:44;14.40;99.90
33803;DHT22;20110;53.120;5.786;2023-07-31T02:36:09;14.30;99.90
33803;DHT22;20110;53.120;5.786;2023-07-31T02:38:35;14.30;99.90
33803;DHT22;20110;53.120;5.786;2023-07-31T02:41:01;14.30;99.90
33803;DHT22;20110;53.120;5.786;2023-07-31T02:43:27;14.30;99.90
33803;DHT22;20110;53.120;5.786;2023-07-31T02:45:53;14.30;99.90
33803;DHT22;20110;53.120;5.786;2023-07-31T02:48:19;14.30;99.90
33803;DHT22;20110;53.120;5.786;2023-07-31T02:50:45;14.30;99.90
33803;DHT22;20110;53.120;5.786;2023-07-31T02:53:13;14.30;99.90
33803;DHT22;20110;53.120;5.786;2023-07-31T02:55:39;14.10;99.90
33803;DHT22;20110;53.120;5.786;2023-07-31T02:58:05;14.10;99.90
33803;DHT22;20110;53.120;5.786;2023-07-31T03:00:30;14.20;99.90
33803;DHT22;20110;53.120;5.786;2023-07-31T03:02:56;14.10;99.90
33803;DHT22;20110;53.120;5.786;2023-07-31T03:05:22;14.10;99.90
33803;DHT22;20110;53.120;5.786;2023-07-31T03:07:48;14.00;99.90
33803;DHT22;20110;53.120;5.786;2023-07-31T03:10:14;14.10;99.90
33803;DHT22;20110;53.120;5.786;2023-07-31T03:12:40;14.10;99.90
33803;DHT22;20110;53.120;5.786;2023-07-31T03:15:07;14.10;99.90
33803;DHT22;20110;53.120;5.786;2023-07-31T03:17:33;14.10;99.90
33803;DHT22;20110;53.120;5.786;2023-07-31T03:19:59;14.10;99.90
33803;DHT22;20110;53.120;5.786;2023-07-31T03:22:24;14.10;99.90
33803;DHT22;20110;53.120;5.786;2023-07-31T03:24:50;14.20;99.90
33803;DHT22;20110;53.120;5.786;2023-07-31T03:27:16;14.20;99.90
33803;DHT22;20110;53.120;5.786;2023-07-31T03:29:42;14.20;99.90
33803;DHT22;20110;53.120;5.786;2023-07-31T03:32:07;14.30;99.90
33803;DHT22;20110;53.120;5.786;2023-07-31T03:34:33;14.40;99.90
33803;DHT22;20110;53.120;5.786;2023-07-31T03:36:59;14.40;99.90
33803;DHT22;20110;53.120;5.786;2023-07-31T03:39:25;14.40;99.90
33803;DHT22;20110;53.120;5.786;2023-07-31T03:41:50;14.40;99.90
33803;DHT22;20110;53.120;5.786;2023-07-31T03:44:16;14.50;99.90
33803;DHT22;20110;53.120;5.786;2023-07-31T03:46:42;14.50;99.90
33803;DHT22;20110;53.120;5.786;2023-07-31T03:49:08;14.50;99.90
33803;DHT22;20110;53.120;5.786;2023-07-31T03:51:34;14.50;99.90
33803;DHT22;20110;53.120;5.786;2023-07-31T03:53:59;14.50;99.90
33803;DHT22;20110;53.120;5.786;2023-07-31T03:56:25;14.60;99.90
33803;DHT22;20110;53.120;5.786;2023-07-31T03:58:51;14.50;99.90
33803;DHT22;20110;53.120;5.786;2023-07-31T04:01:17;14.50;99.90
33803;DHT22;20110;53.120;5.786;2023-07-31T04:03:44;14.50;99.90
33803;DHT22;20110;53.120;5.786;2023-07-31T04:06:10;14.50;99.90
33803;DHT22;20110;53.120;5.786;2023-07-31T04:08:36;14.50;99.90
33803;DHT22;20110;53.120;5.786;2023-07-31T04:11:02;14.50;99.90
33803;DHT22;20110;53.120;5.786;2023-07-31T04:13:30;14.50;99.90
33803;DHT22;20110;53.120;5.786;2023-07-31T04:15:56;14.50;99.90
33803;DHT22;20110;53.120;5.786;2023-07-31T04:18:22;14.50;99.90
33803;DHT22;20110;53.120;5.786;2023-07-31T04:20:49;14.50;99.90
33803;DHT22;20110;53.120;5.786;2023-07-31T04:23:15;14.50;99.90
33803;DHT22;20110;53.120;5.786;2023-07-31T04:25:41;14.50;99.90
33803;DHT22;20110;53.120;5.786;2023-07-31T04:28:06;14.50;99.90
33803;DHT22;20110;53.120;5.786;2023-07-31T04:30:33;14.60;99.90
33803;DHT22;20110;53.120;5.786;2023-07-31T04:32:59;14.60;99.90
33803;DHT22;20110;53.120;5.786;2023-07-31T04:35:25;14.60;99.90
33803;DHT22;20110;53.120;5.786;2023-07-31T04:37:50;14.60;99.90
33803;DHT22;20110;53.120;5.786;2023-07-31T04:40:16;14.60;99.90
33803;DHT22;20110;53.120;5.786;2023-07-31T04:42:42;14.60;99.90
33803;DHT22;20110;53.120;5.786;2023-07-31T04:45:09;14.50;99.90
33803;DHT22;20110;53.120;5.786;2023-07-31T04:47:35;14.50;99.90
33803;DHT22;20110;53.120;5.786;2023-07-31T04:50:01;14.50;99.90
33803;DHT22;20110;53.120;5.786;2023-07-31T04:52:26;14.50;99.90
33803;DHT22;20110;53.120;5.786;2023-07-31T04:54:52;14.40;99.90
33803;DHT22;20110;53.120;5.786;2023-07-31T04:57:18;14.50;99.90
33803;DHT22;20110;53.120;5.786;2023-07-31T04:59:44;14.40;99.90
33803;DHT22;20110;53.120;5.786;2023-07-31T05:02:12;14.50;99.90
33803;DHT22;20110;53.120;5.786;2023-07-31T05:04:38;14.50;99.90
33803;DHT22;20110;53.120;5.786;2023-07-31T05:07:04;14.50;99.90
33803;DHT22;20110;53.120;5.786;2023-07-31T05:09:30;14.60;99.90
33803;DHT22;20110;53.120;5.786;2023-07-31T05:11:56;14.50;99.90
33803;DHT22;20110;53.120;5.786;2023-07-31T05:14:22;14.50;99.90
33803;DHT22;20110;53.120;5.786;2023-07-31T05:16:48;14.60;99.90
33803;DHT22;20110;53.120;5.786;2023-07-31T05:19:14;14.60;99.90
33803;DHT22;20110;53.120;5.786;2023-07-31T05:21:40;14.70;99.90
33803;DHT22;20110;53.120;5.786;2023-07-31T05:24:06;14.70;99.90
33803;DHT22;20110;53.120;5.786;2023-07-31T05:26:32;14.70;99.90
33803;DHT22;20110;53.120;5.786;2023-07-31T05:28:58;14.80;99.90
33803;DHT22;20110;53.120;5.786;2023-07-31T05:31:24;14.80;99.90
33803;DHT22;20110;53.120;5.786;2023-07-31T05:33:50;14.80;99.90
33803;DHT22;20110;53.120;5.786;2023-07-31T05:36:17;14.80;99.90
33803;DHT22;20110;53.120;5.786;2023-07-31T05:38:43;14.80;99.90
33803;DHT22;20110;53.120;5.786;2023-07-31T05:41:12;14.80;99.90
33803;DHT22;20110;53.120;5.786;2023-07-31T05:43:38;14.80;99.90
33803;DHT22;20110;53.120;5.786;2023-07-31T05:46:04;14.80;99.90
33803;DHT22;20110;53.120;5.786;2023-07-31T05:48:32;14.80;99.90
33803;DHT22;20110;53.120;5.786;2023-07-31T05:50:59;14.90;99.90
33803;DHT22;20110;53.120;5.786;2023-07-31T05:53:25;14.90;99.90
33803;DHT22;20110;53.120;5.786;2023-07-31T05:55:51;14.80;99.90
33803;DHT22;20110;53.120;5.786;2023-07-31T05:58:17;14.90;99.90
33803;DHT22;20110;53.120;5.786;2023-07-31T06:00:43;14.90;99.90
33803;DHT22;20110;53.120;5.786;2023-07-31T06:03:09;15.00;99.90
33803;DHT22;20110;53.120;5.786;2023-07-31T06:05:34;15.00;99.90
33803;DHT22;20110;53.120;5.786;2023-07-31T06:08:01;15.10;99.90
33803;DHT22;20110;53.120;5.786;2023-07-31T06:10:27;15.10;99.90
33803;DHT22;20110;53.120;5.786;2023-07-31T06:12:53;15.10;99.90
33803;DHT22;20110;53.120;5.786;2023-07-31T06:15:19;15.10;99.90
33803;DHT22;20110;53.120;5.786;2023-07-31T06:17:45;15.20;99.90
33803;DHT22;20110;53.120;5.786;2023-07-31T06:20:11;15.20;99.90
33803;DHT22;20110;53.120;5.786;2023-07-31T06:22:37;15.20;99.90
33803;DHT22;20110;53.120;5.786;2023-07-31T06:25:03;15.20;99.90
33803;DHT22;20110;53.120;5.786;2023-07-31T06:27:29;15.20;99.90
33803;DHT22;20110;53.120;5.786;2023-07-31T06:29:55;15.20;99.90
33803;DHT22;20110;53.120;5.786;2023-07-31T06:32:21;15.20;99.90
33803;DHT22;20110;53.120;5.786;2023-07-31T06:34:47;15.10;99.90
33803;DHT22;20110;53.120;5.786;2023-07-31T06:37:13;15.10;99.90
33803;DHT22;20110;53.120;5.786;2023-07-31T06:39:39;15.10;99.90
33803;DHT22;20110;53.120;5.786;2023-07-31T06:42:05;15.00;99.90
33803;DHT22;20110;53.120;5.786;2023-07-31T06:44:30;15.20;99.90
33803;DHT22;20110;53.120;5.786;2023-07-31T06:46:56;15.20;99.90
33803;DHT22;20110;53.120;5.786;2023-07-31T06:49:22;15.20;99.90
33803;DHT22;20110;53.120;5.786;2023-07-31T06:51:48;15.20;99.90
33803;DHT22;20110;53.120;5.786;2023-07-31T06:54:14;15.30;99.90
33803;DHT22;20110;53.120;5.786;2023-07-31T06:56:39;15.30;99.90
33803;DHT22;20110;53.120;5.786;2023-07-31T06:59:05;15.30;99.90
33803;DHT22;20110;53.120;5.786;2023-07-31T07:01:31;15.30;99.90
33803;DHT22;20110;53.120;5.786;2023-07-31T07:03:57;15.50;99.90
33803;DHT22;20110;53.120;5.786;2023-07-31T07:06:23;15.60;99.90
33803;DHT22;20110;53.120;5.786;2023-07-31T07:08:48;15.50;99.90
33803;DHT22;20110;53.120;5.786;2023-07-31T07:11:14;15.60;99.90
33803;DHT22;20110;53.120;5.786;2023-07-31T07:13:40;15.60;99.90
33803;DHT22;20110;53.120;5.786;2023-07-31T07:16:06;15.60;99.90
33803;DHT22;20110;53.120;5.786;2023-07-31T07:18:32;15.60;99.90
33803;DHT22;20110;53.120;5.786;2023-07-31T07:20:58;15.60;99.90
33803;DHT22;20110;53.120;5.786;2023-07-31T07:23:23;15.50;99.90
33803;DHT22;20110;53.120;5.786;2023-07-31T07:25:49;15.60;99.90
33803;DHT22;20110;53.120;5.786;2023-07-31T07:28:16;15.60;99.90
33803;DHT22;20110;53.120;5.786;2023-07-31T07:30:42;15.60;99.90
33803;DHT22;20110;53.120;5.786;2023-07-31T07:33:08;15.60;99.90
33803;DHT22;20110;53.120;5.786;2023-07-31T07:35:34;15.60;99.90
33803;DHT22;20110;53.120;5.786;2023-07-31T07:38:02;15.70;99.90
33803;DHT22;20110;53.120;5.786;2023-07-31T07:40:28;15.60;99.90
33803;DHT22;20110;53.120;5.786;2023-07-31T07:42:54;15.70;99.90
33803;DHT22;20110;53.120;5.786;2023-07-31T07:45:20;15.80;99.90
33803;DHT22;20110;53.120;5.786;2023-07-31T07:47:46;15.80;99.90
33803;DHT22;20110;53.120;5.786;2023-07-31T07:50:12;15.80;99.90
33803;DHT22;20110;53.120;5.786;2023-07-31T07:52:38;15.80;99.90
33803;DHT22;20110;53.120;5.786;2023-07-31T07:55:04;15.80;99.90
33803;DHT22;20110;53.120;5.786;2023-07-31T07:57:30;15.90;99.90
33803;DHT22;20110;53.120;5.786;2023-07-31T07:59:56;16.00;99.90
33803;DHT22;20110;53.120;5.786;2023-07-31T08:02:22;16.00;99.90
33803;DHT22;20110;53.120;5.786;2023-07-31T08:04:48;16.00;99.90
33803;DHT22;20110;53.120;5.786;2023-07-31T08:07:14;16.00;99.90
33803;DHT22;20110;53.120;5.786;2023-07-31T08:09:40;16.10;99.90
33803;DHT22;20110;53.120;5.786;2023-07-31T08:12:07;16.10;99.90
33803;DHT22;20110;53.120;5.786;2023-07-31T08:14:33;16.10;99.90
33803;DHT22;20110;53.120;5.786;2023-07-31T08:16:59;16.10;99.90
33803;DHT22;20110;53.120;5.786;2023-07-31T08:19:25;16.30;99.90
33803;DHT22;20110;53.120;5.786;2023-07-31T08:21:51;16.40;99.90
33803;DHT22;20110;53.120;5.786;2023-07-31T08:24:17;16.30;99.90
33803;DHT22;20110;53.120;5.786;2023-07-31T08:26:43;16.30;99.90
33803;DHT22;20110;53.120;5.786;2023-07-31T08:29:09;16.20;99.90
33803;DHT22;20110;53.120;5.786;2023-07-31T08:31:34;16.30;99.90
33803;DHT22;20110;53.120;5.786;2023-07-31T08:34:00;16.30;99.90
33803;DHT22;20110;53.120;5.786;2023-07-31T08:36:26;16.30;99.90
33803;DHT22;20110;53.120;5.786;2023-07-31T08:38:52;16.10;99.90
33803;DHT22;20110;53.120;5.786;2023-07-31T08:41:18;16.20;99.90
33803;DHT22;20110;53.120;5.786;2023-07-31T08:43:49;16.30;99.90
33803;DHT22;20110;53.120;5.786;2023-07-31T08:46:15;16.30;99.90
33803;DHT22;20110;53.120;5.786;2023-07-31T08:48:44;16.30;99.90
33803;DHT22;20110;53.120;5.786;2023-07-31T08:51:14;16.30;99.90
33803;DHT22;20110;53.120;5.786;2023-07-31T08:53:41;16.40;99.90
33803;DHT22;20110;53.120;5.786;2023-07-31T08:56:07;16.40;99.90
33803;DHT22;20110;53.120;5.786;2023-07-31T08:58:35;16.40;99.90
33803;DHT22;20110;53.120;5.786;2023-07-31T09:01:04;16.60;99.90
33803;DHT22;20110;53.120;5.786;2023-07-31T09:03:34;16.40;99.90
33803;DHT22;20110;53.120;5.786;2023-07-31T09:06:04;16.50;99.90
33803;DHT22;20110;53.120;5.786;2023-07-31T09:08:32;16.50;99.90
33803;DHT22;20110;53.120;5.786;2023-07-31T09:11:02;16.30;99.90
33803;DHT22;20110;53.120;5.786;2023-07-31T09:13:31;16.40;99.90
33803;DHT22;20110;53.120;5.786;2023-07-31T09:15:57;16.30;99.90
33803;DHT22;20110;53.120;5.786;2023-07-31T09:18:23;16.40;99.90
33803;DHT22;20110;53.120;5.786;2023-07-31T09:21:02;16.40;99.90
33803;DHT22;20110;53.120;5.786;2023-07-31T09:23:45;16.40;99.90
33803;DHT22;20110;53.120;5.786;2023-07-31T09:26:36;16.60;99.90
33803;DHT22;20110;53.120;5.786;2023-07-31T09:29:07;16.50;99.90
33803;DHT22;20110;53.120;5.786;2023-07-31T09:31:44;16.60;99.90
33803;DHT22;20110;53.120;5.786;2023-07-31T09:34:10;16.80;99.90
33803;DHT22;20110;53.120;5.786;2023-07-31T09:36:49;16.70;99.90
33803;DHT22;20110;53.120;5.786;2023-07-31T09:39:17;16.50;99.90
33803;DHT22;20110;53.120;5.786;2023-07-31T09:41:55;16.40;99.90
33803;DHT22;20110;53.120;5.786;2023-07-31T09:44:21;16.50;99.90
33803;DHT22;20110;53.120;5.786;2023-07-31T09:47:03;16.40;99.90
33803;DHT22;20110;53.120;5.786;2023-07-31T09:49:29;16.40;99.90
33803;DHT22;20110;53.120;5.786;2023-07-31T09:51:55;16.50;99.90
33803;DHT22;20110;53.120;5.786;2023-07-31T09:54:20;16.70;99.90
33803;DHT22;20110;53.120;5.786;2023-07-31T09:56:47;16.60;99.90
33803;DHT22;20110;53.120;5.786;2023-07-31T09:59:16;16.60;99.90
33803;DHT22;20110;53.120;5.786;2023-07-31T10:01:46;16.70;99.90
33803;DHT22;20110;53.120;5.786;2023-07-31T10:04:13;16.80;99.90
33803;DHT22;20110;53.120;5.786;2023-07-31T10:06:42;16.90;99.90
33803;DHT22;20110;53.120;5.786;2023-07-31T10:09:11;16.70;99.90
33803;DHT22;20110;53.120;5.786;2023-07-31T10:11:46;16.70;99.90
33803;DHT22;20110;53.120;5.786;2023-07-31T10:14:19;16.70;99.90
33803;DHT22;20110;53.120;5.786;2023-07-31T10:16:46;16.70;99.90
33803;DHT22;20110;53.120;5.786;2023-07-31T10:19:12;16.90;99.90
33803;DHT22;20110;53.120;5.786;2023-07-31T10:21:38;16.90;99.90
33803;DHT22;20110;53.120;5.786;2023-07-31T10:24:05;16.90;99.90
33803;DHT22;20110;53.120;5.786;2023-07-31T10:26:32;16.80;99.90
33803;DHT22;20110;53.120;5.786;2023-07-31T10:29:00;16.80;99.90
33803;DHT22;20110;53.120;5.786;2023-07-31T10:31:27;17.10;99.90
33803;DHT22;20110;53.120;5.786;2023-07-31T10:33:56;17.50;99.90
33803;DHT22;20110;53.120;5.786;2023-07-31T10:36:24;17.50;99.90
33803;DHT22;20110;53.120;5.786;2023-07-31T10:38:51;17.30;99.90
33803;DHT22;20110;53.120;5.786;2023-07-31T10:41:17;17.30;99.90
33803;DHT22;20110;53.120;5.786;2023-07-31T10:43:46;17.10;99.90
33803;DHT22;20110;53.120;5.786;2023-07-31T10:46:13;17.00;99.90
33803;DHT22;20110;53.120;5.786;2023-07-31T10:48:40;16.60;99.90
33803;DHT22;20110;53.120;5.786;2023-07-31T10:51:08;16.60;99.90
33803;DHT22;20110;53.120;5.786;2023-07-31T10:53:35;16.60;99.90
33803;DHT22;20110;53.120;5.786;2023-07-31T10:56:07;16.70;99.90
33803;DHT22;20110;53.120;5.786;2023-07-31T10:58:36;16.70;99.90
33803;DHT22;20110;53.120;5.786;2023-07-31T11:01:04;16.80;99.90
33803;DHT22;20110;53.120;5.786;2023-07-31T11:03:50;17.10;99.90
33803;DHT22;20110;53.120;5.786;2023-07-31T11:06:19;17.30;99.90
33803;DHT22;20110;53.120;5.786;2023-07-31T11:08:49;17.20;99.90
33803;DHT22;20110;53.120;5.786;2023-07-31T11:11:18;17.00;99.90
33803;DHT22;20110;53.120;5.786;2023-07-31T11:13:49;16.90;99.90
33803;DHT22;20110;53.120;5.786;2023-07-31T11:16:18;16.90;99.90
33803;DHT22;20110;53.120;5.786;2023-07-31T11:18:47;17.20;99.90
33803;DHT22;20110;53.120;5.786;2023-07-31T11:21:21;17.00;99.90
33803;DHT22;20110;53.120;5.786;2023-07-31T11:23:49;16.90;99.90
33803;DHT22;20110;53.120;5.786;2023-07-31T11:26:18;16.70;99.90
33803;DHT22;20110;53.120;5.786;2023-07-31T11:28:47;16.90;99.90
33803;DHT22;20110;53.120;5.786;2023-07-31T11:31:13;17.10;99.90
33803;DHT22;20110;53.120;5.786;2023-07-31T11:33:39;17.30;99.90
33803;DHT22;20110;53.120;5.786;2023-07-31T11:36:05;17.30;99.90
33803;DHT22;20110;53.120;5.786;2023-07-31T11:38:33;17.50;99.90
33803;DHT22;20110;53.120;5.786;2023-07-31T11:41:03;17.60;99.90
33803;DHT22;20110;53.120;5.786;2023-07-31T11:43:31;17.50;99.90
33803;DHT22;20110;53.120;5.786;2023-07-31T11:45:59;17.40;99.90
33803;DHT22;20110;53.120;5.786;2023-07-31T11:48:30;17.20;99.90
33803;DHT22;20110;53.120;5.786;2023-07-31T11:51:00;17.20;99.90
33803;DHT22;20110;53.120;5.786;2023-07-31T11:53:29;17.40;99.90
33803;DHT22;20110;53.120;5.786;2023-07-31T11:55:58;17.60;99.90
33803;DHT22;20110;53.120;5.786;2023-07-31T11:58:27;17.70;99.90
33803;DHT22;20110;53.120;5.786;2023-07-31T12:00:54;17.80;99.90
33803;DHT22;20110;53.120;5.786;2023-07-31T12:03:22;17.80;99.90
33803;DHT22;20110;53.120;5.786;2023-07-31T12:05:48;17.70;99.90
33803;DHT22;20110;53.120;5.786;2023-07-31T12:08:14;17.80;99.90
33803;DHT22;20110;53.120;5.786;2023-07-31T12:10:41;18.00;99.90
33803;DHT22;20110;53.120;5.786;2023-07-31T12:13:23;18.20;99.90
33803;DHT22;20110;53.120;5.786;2023-07-31T12:15:56;18.20;99.90
33803;DHT22;20110;53.120;5.786;2023-07-31T12:18:25;18.20;99.90
33803;DHT22;20110;53.120;5.786;2023-07-31T12:20:57;18.10;99.90
33803;DHT22;20110;53.120;5.786;2023-07-31T12:23:29;17.90;99.90
33803;DHT22;20110;53.120;5.786;2023-07-31T12:26:07;17.50;99.90
33803;DHT22;20110;53.120;5.786;2023-07-31T12:28:42;17.20;99.90
33803;DHT22;20110;53.120;5.786;2023-07-31T12:31:14;17.20;99.90
33803;DHT22;20110;53.120;5.786;2023-07-31T12:33:44;17.30;99.90
33803;DHT22;20110;53.120;5.786;2023-07-31T12:36:14;17.40;99.90
33803;DHT22;20110;53.120;5.786;2023-07-31T12:38:45;17.50;99.90
33803;DHT22;20110;53.120;5.786;2023-07-31T12:41:12;17.60;99.90
33803;DHT22;20110;53.120;5.786;2023-07-31T12:43:39;17.70;99.90
33803;DHT22;20110;53.120;5.786;2023-07-31T12:46:06;17.60;99.90
33803;DHT22;20110;53.120;5.786;2023-07-31T12:48:33;17.80;99.90
33803;DHT22;20110;53.120;5.786;2023-07-31T12:51:00;17.70;99.90
33803;DHT22;20110;53.120;5.786;2023-07-31T12:53:27;17.70;99.90
33803;DHT22;20110;53.120;5.786;2023-07-31T12:55:53;17.80;99.90
33803;DHT22;20110;53.120;5.786;2023-07-31T12:58:19;17.90;99.90
33803;DHT22;20110;53.120;5.786;2023-07-31T13:00:45;18.00;99.90
33803;DHT22;20110;53.120;5.786;2023-07-31T13:03:11;18.00;99.90
33803;DHT22;20110;53.120;5.786;2023-07-31T13:05:37;18.00;99.90
33803;DHT22;20110;53.120;5.786;2023-07-31T13:08:03;18.20;99.90
33803;DHT22;20110;53.120;5.786;2023-07-31T13:10:29;18.10;99.90
33803;DHT22;20110;53.120;5.786;2023-07-31T13:12:56;18.00;99.90
33803;DHT22;20110;53.120;5.786;2023-07-31T13:15:22;17.90;99.90
33803;DHT22;20110;53.120;5.786;2023-07-31T13:17:48;18.10;99.90
33803;DHT22;20110;53.120;5.786;2023-07-31T13:20:14;18.10;99.90
33803;DHT22;20110;53.120;5.786;2023-07-31T13:22:40;18.10;99.90
33803;DHT22;20110;53.120;5.786;2023-07-31T13:25:06;18.10;99.90
33803;DHT22;20110;53.120;5.786;2023-07-31T13:27:32;18.20;99.90
33803;DHT22;20110;53.120;5.786;2023-07-31T13:29:59;18.40;99.90
33803;DHT22;20110;53.120;5.786;2023-07-31T13:32:25;18.20;99.90
33803;DHT22;20110;53.120;5.786;2023-07-31T13:34:51;18.10;99.90
33803;DHT22;20110;53.120;5.786;2023-07-31T13:37:17;17.90;99.90
33803;DHT22;20110;53.120;5.786;2023-07-31T13:39:43;17.50;99.90
33803;DHT22;20110;53.120;5.786;2023-07-31T13:42:09;17.20;99.90
33803;DHT22;20110;53.120;5.786;2023-07-31T13:44:41;17.40;99.90
33803;DHT22;20110;53.120;5.786;2023-07-31T13:47:08;17.50;99.90
33803;DHT22;20110;53.120;5.786;2023-07-31T13:49:35;17.50;99.90
33803;DHT22;20110;53.120;5.786;2023-07-31T13:52:02;17.40;99.90
33803;DHT22;20110;53.120;5.786;2023-07-31T13:54:28;17.60;99.90
33803;DHT22;20110;53.120;5.786;2023-07-31T13:56:54;17.60;99.90
33803;DHT22;20110;53.120;5.786;2023-07-31T13:59:21;17.70;99.90
33803;DHT22;20110;53.120;5.786;2023-07-31T14:01:47;17.70;99.90
33803;DHT22;20110;53.120;5.786;2023-07-31T14:04:13;17.70;99.90
33803;DHT22;20110;53.120;5.786;2023-07-31T14:06:39;17.60;99.90
33803;DHT22;20110;53.120;5.786;2023-07-31T14:09:05;17.70;99.90
33803;DHT22;20110;53.120;5.786;2023-07-31T14:11:31;17.70;99.90
33803;DHT22;20110;53.120;5.786;2023-07-31T14:13:57;17.70;99.90
33803;DHT22;20110;53.120;5.786;2023-07-31T14:16:25;17.90;99.90
33803;DHT22;20110;53.120;5.786;2023-07-31T14:18:50;17.80;99.90
33803;DHT22;20110;53.120;5.786;2023-07-31T14:21:20;17.70;99.90
33803;DHT22;20110;53.120;5.786;2023-07-31T14:23:46;17.60;99.90
33803;DHT22;20110;53.120;5.786;2023-07-31T14:26:12;17.80;99.90
33803;DHT22;20110;53.120;5.786;2023-07-31T14:28:38;17.60;99.90
33803;DHT22;20110;53.120;5.786;2023-07-31T14:31:04;17.60;99.90
33803;DHT22;20110;53.120;5.786;2023-07-31T14:33:30;17.60;99.90
33803;DHT22;20110;53.120;5.786;2023-07-31T14:35:55;17.60;99.90
33803;DHT22;20110;53.120;5.786;2023-07-31T14:38:21;17.50;99.90
33803;DHT22;20110;53.120;5.786;2023-07-31T14:40:47;17.50;99.90
33803;DHT22;20110;53.120;5.786;2023-07-31T14:43:14;17.50;99.90
33803;DHT22;20110;53.120;5.786;2023-07-31T14:45:40;17.50;99.90
33803;DHT22;20110;53.120;5.786;2023-07-31T14:48:06;17.60;99.90
33803;DHT22;20110;53.120;5.786;2023-07-31T14:50:32;17.50;99.90
33803;DHT22;20110;53.120;5.786;2023-07-31T14:52:58;17.50;99.90
33803;DHT22;20110;53.120;5.786;2023-07-31T14:55:25;17.50;99.90
33803;DHT22;20110;53.120;5.786;2023-07-31T14:57:50;17.50;99.90
33803;DHT22;20110;53.120;5.786;2023-07-31T15:00:16;17.50;99.90
33803;DHT22;20110;53.120;5.786;2023-07-31T15:02:42;17.50;99.90
33803;DHT22;20110;53.120;5.786;2023-07-31T15:05:08;17.50;99.90
33803;DHT22;20110;53.120;5.786;2023-07-31T15:07:34;17.20;99.90
33803;DHT22;20110;53.120;5.786;2023-07-31T15:10:04;17.20;99.90
33803;DHT22;20110;53.120;5.786;2023-07-31T15:12:31;17.10;99.90
33803;DHT22;20110;53.120;5.786;2023-07-31T15:14:57;17.10;99.90
33803;DHT22;20110;53.120;5.786;2023-07-31T15:17:23;17.00;99.90
33803;DHT22;20110;53.120;5.786;2023-07-31T15:19:49;17.10;99.90
33803;DHT22;20110;53.120;5.786;2023-07-31T15:22:15;17.10;99.90
33803;DHT22;20110;53.120;5.786;2023-07-31T15:24:41;17.30;99.90
33803;DHT22;20110;53.120;5.786;2023-07-31T15:27:07;17.30;99.90
33803;DHT22;20110;53.120;5.786;2023-07-31T15:29:34;17.30;99.90
33803;DHT22;20110;53.120;5.786;2023-07-31T15:32:03;17.30;99.90
33803;DHT22;20110;53.120;5.786;2023-07-31T15:34:30;17.40;99.90